createdAt,value
2023-02-24T00:01:25.626Z,49.40
2023-02-24T00:03:53.234Z,49.55
2023-02-24T00:06:20.056Z,49.58
2023-02-24T00:08:47.453Z,49.60
2023-02-24T00:11:15.285Z,49.61
2023-02-24T00:13:46.638Z,49.41
2023-02-24T00:16:17.850Z,49.42
2023-02-24T00:18:45.403Z,49.58
2023-02-24T00:21:15.104Z,49.65
2023-02-24T00:23:43.858Z,49.44
2023-02-24T00:26:11.215Z,49.41
2023-02-24T00:28:38.666Z,50.01
2023-02-24T00:31:16.304Z,49.59
2023-02-24T00:33:44.479Z,49.75
2023-02-24T00:36:17.009Z,49.43
2023-02-24T00:38:47.291Z,49.54
2023-02-24T00:41:15.701Z,49.58
2023-02-24T00:43:49.334Z,49.61
2023-02-24T00:46:17.478Z,49.41
2023-02-24T00:48:45.972Z,49.73
2023-02-24T00:51:17.255Z,49.72
2023-02-24T00:53:44.651Z,49.72
2023-02-24T00:56:16.255Z,49.68
2023-02-24T00:58:44.987Z,49.66
2023-02-24T01:01:14.380Z,49.77
2023-02-24T01:03:42.387Z,49.73
2023-02-24T01:06:09.509Z,49.64
2023-02-24T01:08:40.187Z,49.51
2023-02-24T01:11:25.697Z,49.59
2023-02-24T01:13:52.978Z,49.56
2023-02-24T01:16:19.870Z,49.71
2023-02-24T01:18:49.827Z,49.49
2023-02-24T01:21:18.007Z,49.66
2023-02-24T01:23:49.098Z,49.71
2023-02-24T01:26:16.495Z,49.64
2023-02-24T01:28:47.049Z,49.37
2023-02-24T01:31:16.195Z,49.34
2023-02-24T01:33:45.833Z,49.50
2023-02-24T01:36:20.298Z,49.63
2023-02-24T01:38:49.093Z,49.62
2023-02-24T01:41:17.633Z,49.54
2023-02-24T01:44:02.088Z,49.59
2023-02-24T01:46:33.234Z,49.53
2023-02-24T01:49:21.905Z,49.55
2023-02-24T01:51:52.434Z,49.55
2023-02-24T01:54:21.599Z,49.65
2023-02-24T01:56:49.938Z,49.59
2023-02-24T01:59:17.179Z,49.65
2023-02-24T02:01:46.007Z,49.58
2023-02-24T02:04:34.053Z,49.66
2023-02-24T02:07:01.334Z,49.75
2023-02-24T02:09:28.510Z,49.72
2023-02-24T02:11:55.287Z,49.61
2023-02-24T02:14:23.634Z,49.78
2023-02-24T02:17:06.329Z,49.85
2023-02-24T02:20:07.842Z,49.86
2023-02-24T02:22:51.032Z,49.85
2023-02-24T02:25:25.525Z,49.78
2023-02-24T02:28:32.653Z,50.11
2023-02-24T02:31:33.918Z,50.03
2023-02-24T02:34:19.426Z,50.19
2023-02-24T02:36:55.714Z,50.23
2023-02-24T02:39:34.200Z,50.38
2023-02-24T02:42:34.090Z,50.48
2023-02-24T02:45:05.260Z,50.47
2023-02-24T02:47:37.505Z,50.72
2023-02-24T02:50:18.659Z,50.68
2023-02-24T02:53:00.827Z,50.78
2023-02-24T02:55:27.668Z,50.82
2023-02-24T02:57:55.222Z,51.07
2023-02-24T03:00:24.217Z,50.71
2023-02-24T03:02:52.319Z,50.86
2023-02-24T03:05:21.393Z,50.99
2023-02-24T03:07:53.268Z,51.09
2023-02-24T03:10:22.598Z,51.25
2023-02-24T03:12:52.156Z,51.10
2023-02-24T03:15:21.090Z,50.98
2023-02-24T03:17:50.080Z,51.40
2023-02-24T03:20:29.402Z,51.34
2023-02-24T03:23:00.227Z,51.29
2023-02-24T03:25:33.915Z,51.12
2023-02-24T03:28:05.749Z,51.30
2023-02-24T03:30:38.028Z,51.34
2023-02-24T03:33:07.333Z,51.70
2023-02-24T03:35:38.082Z,51.49
2023-02-24T03:38:06.406Z,51.34
2023-02-24T03:40:36.023Z,51.49
2023-02-24T03:43:27.925Z,51.68
2023-02-24T03:45:54.909Z,51.75
2023-02-24T03:48:22.013Z,51.64
2023-02-24T03:50:49.633Z,51.72
2023-02-24T03:53:31.156Z,51.76
2023-02-24T03:56:01.131Z,51.70
2023-02-24T03:58:32.249Z,51.72
2023-02-24T04:01:07.629Z,51.66
2023-02-24T04:04:02.718Z,51.75
2023-02-24T04:06:44.627Z,51.94
2023-02-24T04:09:36.103Z,51.75
2023-02-24T04:12:05.176Z,51.66
2023-02-24T04:14:34.677Z,51.65
2023-02-24T04:17:07.933Z,52.08
2023-02-24T04:19:38.479Z,52.14
2023-02-24T04:22:06.711Z,52.39
2023-02-24T04:24:33.807Z,52.03
2023-02-24T04:27:01.221Z,52.08
2023-02-24T04:29:35.436Z,52.15
2023-02-24T04:32:09.793Z,51.77
2023-02-24T04:34:37.548Z,52.04
2023-02-24T04:37:04.304Z,52.28
2023-02-24T04:39:31.508Z,52.25
2023-02-24T04:42:01.726Z,52.30
2023-02-24T04:44:29.189Z,51.95
2023-02-24T04:46:56.576Z,52.59
2023-02-24T04:49:23.711Z,52.63
2023-02-24T04:51:51.628Z,52.33
2023-02-24T04:54:20.118Z,52.21
2023-02-24T04:56:50.939Z,51.96
2023-02-24T04:59:19.073Z,52.10
2023-02-24T05:01:45.912Z,52.09
2023-02-24T05:04:14.082Z,52.25
2023-02-24T05:06:43.982Z,52.53
2023-02-24T05:09:15.029Z,52.33
2023-02-24T05:11:42.620Z,52.36
2023-02-24T05:14:16.287Z,52.21
2023-02-24T05:16:43.749Z,52.53
2023-02-24T05:19:30.567Z,52.71
2023-02-24T05:22:00.153Z,52.43
2023-02-24T05:24:29.142Z,52.66
2023-02-24T05:26:59.750Z,52.40
2023-02-24T05:29:28.472Z,52.52
2023-02-24T05:31:59.651Z,52.72
2023-02-24T05:34:27.520Z,52.90
2023-02-24T05:36:54.294Z,52.76
2023-02-24T05:39:21.686Z,52.90
2023-02-24T05:41:49.527Z,52.74
2023-02-24T05:44:22.633Z,52.58
2023-02-24T05:46:51.307Z,52.86
2023-02-24T05:49:27.400Z,52.82
2023-02-24T05:51:58.065Z,52.75
2023-02-24T05:54:29.528Z,52.61
2023-02-24T05:57:00.416Z,52.14
2023-02-24T05:59:32.631Z,52.09
2023-02-24T06:02:00.828Z,51.96
2023-02-24T06:04:39.404Z,52.93
2023-02-24T06:07:19.361Z,53.26
2023-02-24T06:09:53.860Z,52.98
2023-02-24T06:12:21.754Z,53.14
2023-02-24T06:14:49.018Z,53.10
2023-02-24T06:17:17.073Z,53.22
2023-02-24T06:19:45.254Z,53.40
2023-02-24T06:22:13.185Z,53.25
2023-02-24T06:24:46.191Z,53.16
2023-02-24T06:27:17.894Z,53.02
2023-02-24T06:29:54.870Z,53.48
2023-02-24T06:32:23.990Z,53.10
2023-02-24T06:34:51.788Z,53.34
2023-02-24T06:37:18.592Z,53.31
2023-02-24T06:39:45.870Z,53.00
2023-02-24T06:42:12.882Z,53.24
2023-02-24T06:44:40.714Z,53.15
2023-02-24T06:47:08.643Z,52.96
2023-02-24T06:49:35.699Z,53.35
2023-02-24T06:52:03.257Z,53.34
2023-02-24T06:54:30.914Z,53.57
2023-02-24T06:57:00.819Z,53.60
2023-02-24T06:59:28.660Z,53.50
2023-02-24T07:01:56.344Z,53.03
2023-02-24T07:04:27.741Z,53.57
2023-02-24T07:06:57.330Z,53.35
2023-02-24T07:09:25.666Z,53.54
2023-02-24T07:11:53.313Z,53.59
2023-02-24T07:14:21.344Z,53.78
2023-02-24T07:16:52.640Z,53.62
2023-02-24T07:19:22.444Z,53.65
2023-02-24T07:21:52.860Z,53.56
2023-02-24T07:24:33.130Z,53.86
2023-02-24T07:27:01.380Z,53.98
2023-02-24T07:29:30.322Z,54.01
2023-02-24T07:32:05.767Z,53.97
2023-02-24T07:34:33.783Z,54.20
2023-02-24T07:37:02.745Z,54.28
2023-02-24T07:39:29.865Z,54.28
2023-02-24T07:41:57.230Z,54.36
2023-02-24T07:44:24.625Z,54.30
2023-02-24T07:46:51.625Z,54.21
2023-02-24T07:49:20.629Z,54.20
2023-02-24T07:51:52.804Z,53.91
2023-02-24T07:54:21.369Z,54.07
2023-02-24T07:56:56.519Z,54.17
2023-02-24T07:59:32.619Z,54.06
2023-02-24T08:02:00.577Z,53.88
2023-02-24T08:04:30.071Z,53.61
2023-02-24T08:06:58.732Z,53.91
2023-02-24T08:09:45.940Z,54.10
2023-02-24T08:12:21.948Z,54.06
2023-02-24T08:14:52.292Z,53.96
2023-02-24T08:17:23.526Z,54.11
2023-02-24T08:20:01.106Z,54.29
2023-02-24T08:22:36.015Z,54.19
2023-02-24T08:25:06.288Z,54.14
2023-02-24T08:27:38.799Z,54.79
2023-02-24T08:30:07.763Z,54.96
2023-02-24T08:32:37.398Z,54.57
2023-02-24T08:35:05.891Z,54.88
2023-02-24T08:37:39.799Z,54.93
2023-02-24T08:40:18.559Z,55.05
2023-02-24T08:42:45.371Z,54.44
2023-02-24T08:45:14.382Z,54.57
2023-02-24T08:47:42.099Z,54.88
2023-02-24T08:50:10.238Z,54.82
2023-02-24T08:52:39.205Z,54.80
2023-02-24T08:55:10.674Z,54.84
2023-02-24T08:57:37.454Z,55.15
2023-02-24T09:00:07.110Z,54.91
2023-02-24T09:02:39.528Z,54.80
2023-02-24T09:05:12.483Z,54.92
2023-02-24T09:07:41.379Z,54.45
2023-02-24T09:10:17.767Z,54.71
2023-02-24T09:12:44.893Z,54.74
2023-02-24T09:15:15.402Z,54.82
2023-02-24T09:17:46.126Z,54.80
2023-02-24T09:20:27.889Z,54.84
2023-02-24T09:23:00.674Z,54.45
2023-02-24T09:25:40.846Z,54.81
2023-02-24T09:28:21.233Z,55.08
2023-02-24T09:30:55.375Z,55.32
2023-02-24T09:33:41.830Z,55.21
2023-02-24T09:36:10.140Z,55.69
2023-02-24T09:39:00.136Z,55.48
2023-02-24T09:42:07.600Z,55.27
2023-02-24T09:44:46.049Z,55.25
2023-02-24T09:47:20.036Z,55.63
2023-02-24T09:49:56.395Z,55.39
2023-02-24T09:52:39.797Z,55.77
2023-02-24T09:55:25.654Z,55.63
2023-02-24T09:58:18.221Z,55.74
2023-02-24T10:01:21.134Z,55.79
2023-02-24T10:04:14.945Z,55.38
2023-02-24T10:07:09.129Z,55.30
2023-02-24T10:09:41.731Z,55.10
2023-02-24T10:12:13.787Z,55.12
2023-02-24T10:15:20.143Z,55.34
2023-02-24T10:18:29.013Z,55.19
2023-02-24T10:21:09.745Z,55.01
2023-02-24T10:23:45.790Z,55.16
2023-02-24T10:26:31.871Z,55.01
2023-02-24T10:29:02.534Z,55.00
2023-02-24T10:31:35.518Z,55.22
2023-02-24T10:34:07.890Z,55.13
2023-02-24T10:36:35.645Z,55.06
2023-02-24T10:39:27.027Z,55.14
2023-02-24T10:41:58.964Z,55.30
2023-02-24T10:44:36.501Z,55.12
2023-02-24T10:47:13.420Z,55.30
2023-02-24T10:49:57.185Z,55.54
2023-02-24T10:52:43.074Z,54.99
2023-02-24T10:55:28.372Z,55.17
2023-02-24T10:58:07.627Z,55.11
2023-02-24T11:00:59.955Z,54.71
2023-02-24T11:03:42.287Z,54.84
2023-02-24T11:06:42.035Z,54.83
2023-02-24T11:09:27.307Z,54.84
2023-02-24T11:12:13.894Z,54.61
2023-02-24T11:15:13.210Z,54.63
2023-02-24T11:17:54.252Z,54.43
2023-02-24T11:20:48.061Z,55.02
2023-02-24T11:23:24.732Z,55.01
2023-02-24T11:25:53.627Z,54.73
2023-02-24T11:28:32.492Z,54.87
2023-02-24T11:31:26.259Z,54.49
2023-02-24T11:34:18.172Z,54.32
2023-02-24T11:36:58.185Z,54.25
2023-02-24T11:39:39.358Z,54.21
2023-02-24T11:42:11.403Z,53.80
2023-02-24T11:44:41.419Z,54.30
2023-02-24T11:47:15.488Z,54.06
2023-02-24T11:50:21.374Z,54.35
2023-02-24T11:52:48.485Z,54.06
2023-02-24T11:55:40.163Z,54.31
2023-02-24T11:58:48.682Z,54.00
2023-02-24T12:01:24.414Z,54.24
2023-02-24T12:04:10.358Z,54.32
2023-02-24T12:07:10.679Z,54.61
2023-02-24T12:10:06.920Z,55.17
2023-02-24T12:12:53.394Z,54.96
2023-02-24T12:15:35.583Z,55.42
2023-02-24T12:18:42.675Z,55.68
2023-02-24T12:21:15.112Z,55.62
2023-02-24T12:23:44.395Z,55.64
2023-02-24T12:26:42.816Z,55.74
2023-02-24T12:29:45.102Z,55.69
2023-02-24T12:32:30.325Z,56.04
2023-02-24T12:35:19.928Z,55.97
2023-02-24T12:38:09.473Z,55.69
2023-02-24T12:40:48.135Z,55.58
2023-02-24T12:43:45.200Z,55.41
2023-02-24T12:46:30.742Z,55.67
2023-02-24T12:49:30.123Z,55.48
2023-02-24T12:52:39.710Z,55.15
2023-02-24T12:55:23.652Z,54.97
2023-02-24T12:58:17.883Z,55.00
2023-02-24T13:01:04.909Z,54.84
2023-02-24T13:03:55.128Z,54.77
2023-02-24T13:06:47.370Z,54.70
2023-02-24T13:09:21.147Z,54.67
2023-02-24T13:11:51.166Z,54.33
2023-02-24T13:14:23.838Z,54.54
2023-02-24T13:16:50.936Z,54.25
2023-02-24T13:19:22.303Z,54.45
2023-02-24T13:21:56.444Z,54.40
2023-02-24T13:24:23.934Z,54.52
2023-02-24T13:26:51.029Z,54.50
2023-02-24T13:29:17.888Z,54.53
2023-02-24T13:31:49.633Z,54.01
2023-02-24T13:34:33.104Z,53.92
2023-02-24T13:37:00.250Z,54.22
2023-02-24T13:39:38.332Z,54.20
2023-02-24T13:42:25.969Z,54.20
2023-02-24T13:45:03.026Z,54.44
2023-02-24T13:48:11.657Z,53.95
2023-02-24T13:50:52.236Z,54.07
2023-02-24T13:53:25.569Z,53.85
2023-02-24T13:55:58.694Z,53.91
2023-02-24T13:58:32.055Z,53.99
2023-02-24T14:01:14.056Z,54.00
2023-02-24T14:03:43.784Z,54.02
2023-02-24T14:06:26.000Z,53.90
2023-02-24T14:08:55.045Z,53.92
2023-02-24T14:11:26.153Z,54.08
2023-02-24T14:13:54.191Z,54.07
2023-02-24T14:16:29.408Z,54.10
2023-02-24T14:18:58.132Z,54.05
2023-02-24T14:21:26.753Z,54.33
2023-02-24T14:24:01.714Z,53.90
2023-02-24T14:26:30.408Z,54.03
2023-02-24T14:29:00.691Z,54.05
2023-02-24T14:31:27.818Z,53.95
2023-02-24T14:33:58.281Z,54.27
2023-02-24T14:36:29.322Z,54.17
2023-02-24T14:39:19.280Z,54.24
2023-02-24T14:41:46.565Z,54.07
2023-02-24T14:44:29.200Z,54.25
2023-02-24T14:46:57.817Z,54.20
2023-02-24T14:49:27.273Z,54.01
2023-02-24T14:52:09.674Z,53.90
2023-02-24T14:54:36.729Z,54.10
2023-02-24T14:57:03.488Z,54.37
2023-02-24T14:59:37.849Z,53.87
2023-02-24T15:02:05.420Z,54.06
2023-02-24T15:04:37.585Z,54.05
2023-02-24T15:07:06.790Z,53.81
2023-02-24T15:09:41.958Z,53.86
2023-02-24T15:13:00.745Z,53.63
2023-02-24T15:15:29.754Z,53.60
2023-02-24T15:18:04.131Z,53.58
2023-02-24T15:20:36.408Z,53.74
2023-02-24T15:23:03.270Z,53.62
2023-02-24T15:25:42.330Z,53.70
2023-02-24T15:28:32.048Z,53.40
2023-02-24T15:31:08.523Z,53.62
2023-02-24T15:33:41.759Z,53.52
2023-02-24T15:36:17.255Z,53.46
2023-02-24T15:38:44.439Z,53.74
2023-02-24T15:41:12.398Z,53.64
2023-02-24T15:43:46.428Z,53.53
2023-02-24T15:46:30.695Z,53.55
2023-02-24T15:49:01.743Z,53.65
2023-02-24T15:51:33.966Z,53.26
2023-02-24T15:54:01.447Z,53.18
2023-02-24T15:56:28.879Z,53.27
2023-02-24T15:58:55.662Z,53.52
2023-02-24T16:01:22.782Z,53.36
2023-02-24T16:03:49.804Z,53.42
2023-02-24T16:06:21.245Z,53.49
2023-02-24T16:08:48.581Z,53.53
2023-02-24T16:11:17.166Z,53.30
2023-02-24T16:13:45.440Z,53.58
2023-02-24T16:16:12.912Z,53.62
2023-02-24T16:18:39.728Z,53.64
2023-02-24T16:21:07.007Z,53.54
2023-02-24T16:23:40.313Z,53.63
2023-02-24T16:26:12.927Z,53.56
2023-02-24T16:28:39.706Z,53.54
2023-02-24T16:31:07.440Z,53.57
2023-02-24T16:33:51.934Z,53.49
2023-02-24T16:36:23.439Z,53.47
2023-02-24T16:38:51.773Z,53.27
2023-02-24T16:41:18.980Z,53.48
2023-02-24T16:43:45.795Z,53.40
2023-02-24T16:46:18.155Z,53.47
2023-02-24T16:48:46.181Z,53.40
2023-02-24T16:51:13.391Z,53.36
2023-02-24T16:53:40.377Z,53.08
2023-02-24T16:56:07.887Z,53.01
2023-02-24T16:58:34.727Z,53.23
2023-02-24T17:01:02.870Z,53.13
2023-02-24T17:03:42.699Z,53.27
2023-02-24T17:06:09.848Z,53.30
2023-02-24T17:08:36.802Z,53.28
2023-02-24T17:11:03.962Z,53.32
2023-02-24T17:13:30.758Z,53.36
2023-02-24T17:15:58.055Z,53.24
2023-02-24T17:18:25.087Z,53.48
2023-02-24T17:20:52.262Z,53.26
2023-02-24T17:23:19.283Z,53.50
2023-02-24T17:25:47.464Z,53.33
2023-02-24T17:28:14.223Z,53.47
2023-02-24T17:30:41.440Z,53.65
2023-02-24T17:33:08.412Z,53.39
2023-02-24T17:35:35.511Z,53.47
2023-02-24T17:38:02.717Z,53.70
2023-02-24T17:40:29.846Z,53.67
2023-02-24T17:42:56.582Z,53.58
2023-02-24T17:45:23.598Z,53.81
2023-02-24T17:47:52.716Z,53.55
2023-02-24T17:50:19.827Z,53.52
2023-02-24T17:52:46.743Z,53.45
2023-02-24T17:55:13.925Z,53.55
2023-02-24T17:57:40.789Z,53.56
2023-02-24T18:00:08.687Z,53.40
2023-02-24T18:02:35.605Z,53.67
2023-02-24T18:05:02.868Z,53.40
2023-02-24T18:07:29.822Z,53.59
2023-02-24T18:09:56.997Z,53.41
2023-02-24T18:12:24.684Z,53.62
2023-02-24T18:15:06.990Z,53.59
2023-02-24T18:17:35.735Z,53.57
2023-02-24T18:20:03.978Z,53.69
2023-02-24T18:22:30.782Z,53.70
2023-02-24T18:24:59.176Z,53.61
2023-02-24T18:27:26.049Z,53.61
2023-02-24T18:29:53.907Z,53.57
2023-02-24T18:32:20.917Z,53.64
2023-02-24T18:34:48.286Z,53.74
2023-02-24T18:37:15.117Z,53.73
2023-02-24T18:39:42.304Z,53.63
2023-02-24T18:42:09.688Z,53.77
2023-02-24T18:44:36.805Z,53.53
2023-02-24T18:47:09.341Z,53.76
2023-02-24T18:49:36.952Z,53.75
2023-02-24T18:52:05.386Z,53.92
2023-02-24T18:54:33.342Z,53.69
2023-02-24T18:57:00.111Z,53.71
2023-02-24T18:59:27.180Z,53.74
2023-02-24T19:01:56.713Z,53.62
2023-02-24T19:04:24.262Z,53.55
2023-02-24T19:06:51.057Z,53.45
2023-02-24T19:09:21.809Z,53.65
2023-02-24T19:11:49.642Z,53.67
2023-02-24T19:14:16.865Z,53.75
2023-02-24T19:16:43.754Z,53.51
2023-02-24T19:19:13.533Z,53.67
2023-02-24T19:21:40.307Z,53.84
2023-02-24T19:24:08.462Z,53.74
2023-02-24T19:26:35.382Z,53.66
2023-02-24T19:29:03.895Z,53.66
2023-02-24T19:31:31.235Z,53.84
2023-02-24T19:34:03.073Z,53.78
2023-02-24T19:36:30.727Z,53.78
2023-02-24T19:38:57.893Z,53.68
2023-02-24T19:41:24.734Z,53.73
2023-02-24T19:43:52.076Z,53.64
2023-02-24T19:46:19.048Z,53.69
2023-02-24T19:48:46.235Z,53.89
2023-02-24T19:51:17.491Z,53.59
2023-02-24T19:53:44.652Z,53.65
2023-02-24T19:56:11.630Z,53.76
2023-02-24T19:58:38.870Z,53.81
2023-02-24T20:01:10.206Z,53.67
2023-02-24T20:03:38.248Z,53.46
2023-02-24T20:06:05.385Z,53.76
2023-02-24T20:08:34.663Z,53.99
2023-02-24T20:11:02.430Z,53.81
2023-02-24T20:13:29.873Z,54.00
2023-02-24T20:16:12.971Z,53.79
2023-02-24T20:18:40.682Z,53.88
2023-02-24T20:21:07.792Z,54.15
2023-02-24T20:23:35.009Z,54.04
2023-02-24T20:26:02.024Z,53.70
2023-02-24T20:28:29.452Z,53.98
2023-02-24T20:30:57.402Z,53.75
2023-02-24T20:33:24.894Z,53.93
2023-02-24T20:35:51.646Z,54.07
2023-02-24T20:38:18.770Z,54.28
2023-02-24T20:40:45.552Z,54.12
2023-02-24T20:43:12.645Z,54.32
2023-02-24T20:45:40.921Z,54.37
2023-02-24T20:48:08.888Z,54.39
2023-02-24T20:50:36.054Z,54.52
2023-02-24T20:53:04.299Z,54.56
2023-02-24T20:55:31.356Z,54.41
2023-02-24T20:57:58.454Z,54.79
2023-02-24T21:00:25.591Z,54.61
2023-02-24T21:02:52.931Z,54.58
2023-02-24T21:05:21.531Z,54.80
2023-02-24T21:07:49.896Z,54.68
2023-02-24T21:10:17.713Z,54.71
2023-02-24T21:12:45.228Z,54.76
2023-02-24T21:15:12.434Z,54.67
2023-02-24T21:17:39.880Z,54.69
2023-02-24T21:20:11.177Z,54.56
2023-02-24T21:22:39.355Z,54.62
2023-02-24T21:25:10.885Z,54.73
2023-02-24T21:27:38.411Z,54.34
2023-02-24T21:30:06.461Z,54.51
2023-02-24T21:32:33.914Z,54.49
2023-02-24T21:35:00.725Z,54.15
2023-02-24T21:37:28.041Z,54.39
2023-02-24T21:39:54.767Z,54.41
2023-02-24T21:42:22.508Z,54.21
2023-02-24T21:44:52.106Z,54.15
2023-02-24T21:47:20.425Z,54.17
2023-02-24T21:49:47.209Z,54.23
2023-02-24T21:52:14.343Z,54.05
2023-02-24T21:54:42.335Z,54.24
2023-02-24T21:57:09.371Z,54.10
2023-02-24T21:59:36.144Z,54.26
2023-02-24T22:02:03.313Z,54.17
2023-02-24T22:04:30.137Z,54.26
2023-02-24T22:06:57.203Z,54.28
2023-02-24T22:09:23.966Z,54.23
2023-02-24T22:11:51.124Z,54.16
2023-02-24T22:14:18.119Z,54.06
2023-02-24T22:16:45.246Z,53.83
2023-02-24T22:19:12.040Z,53.90
2023-02-24T22:21:41.686Z,53.98
2023-02-24T22:24:10.048Z,54.38
2023-02-24T22:26:37.277Z,54.18
2023-02-24T22:29:04.952Z,54.01
2023-02-24T22:31:32.721Z,54.20
2023-02-24T22:33:59.903Z,53.95
2023-02-24T22:36:28.797Z,54.07
2023-02-24T22:38:56.417Z,53.94
2023-02-24T22:41:25.806Z,53.76
2023-02-24T22:43:53.992Z,53.61
2023-02-24T22:46:32.222Z,53.77
2023-02-24T22:48:59.124Z,53.66
2023-02-24T22:51:26.646Z,53.49
2023-02-24T22:53:53.670Z,53.82
2023-02-24T22:56:22.890Z,53.49
2023-02-24T22:58:50.099Z,53.38
2023-02-24T23:01:22.276Z,53.45
2023-02-24T23:03:49.410Z,53.67
2023-02-24T23:06:21.890Z,53.50
2023-02-24T23:08:49.641Z,53.61
2023-02-24T23:11:21.634Z,53.54
2023-02-24T23:13:49.225Z,53.63
2023-02-24T23:16:18.632Z,53.53
2023-02-24T23:18:56.289Z,53.75
2023-02-24T23:21:24.947Z,53.64
2023-02-24T23:23:56.930Z,53.78
2023-02-24T23:26:31.839Z,53.49
2023-02-24T23:28:58.715Z,53.48
2023-02-24T23:31:25.825Z,53.49
2023-02-24T23:33:53.590Z,53.54
2023-02-24T23:36:22.197Z,53.48
2023-02-24T23:38:49.257Z,53.41
2023-02-24T23:41:16.554Z,53.25
2023-02-24T23:43:43.425Z,53.28
2023-02-24T23:46:11.515Z,53.22
2023-02-24T23:48:38.719Z,53.23
2023-02-24T23:51:07.137Z,53.26
2023-02-24T23:53:41.279Z,53.34
2023-02-24T23:56:09.752Z,53.32
2023-02-24T23:58:37.339Z,53.29
